Time;durP1;ratioP1;P1;durP2;ratioP2;P2;SDS_P1;SDS_P2;PMS_P1;PMS_P2;Temp;Humidity;BMP_temperature;BMP_pressure;BME280_temperature;BME280_humidity;BME280_pressure;Samples;Min_cycle;Max_cycle;Signal;HPM_P1;HPM_P2
2023/07/31 00:00:03;;;;;;;1.52;1.40;;;;;;;;;;5077478;28;20471;-83
2023/07/31 00:02:29;;;;;;;3.10;1.63;;;;;;;;;;5076873;28;20799;-83
2023/07/31 00:04:55;;;;;;;2.40;1.40;;;;;;;;;;5077457;28;20478;-83
2023/07/31 00:07:21;;;;;;;2.30;1.30;;;;;;;;;;5077501;28;20395;-83
2023/07/31 00:09:47;;;;;;;1.65;1.25;;;;;;;;;;5078064;28;20387;-83
2023/07/31 00:12:13;;;;;;;4.35;1.48;;;;;;;;;;5077330;28;20752;-83
2023/07/31 00:14:39;;;;;;;1.90;1.20;;;;;;;;;;5077623;28;20529;-83
2023/07/31 00:17:05;;;;;;;1.50;1.33;;;;;;;;;;5077272;28;20384;-83
2023/07/31 00:19:31;;;;;;;2.88;1.60;;;;;;;;;;5076333;28;20388;-83
2023/07/31 00:21:57;;;;;;;1.60;1.30;;;;;;;;;;5077127;28;20418;-83
2023/07/31 00:24:23;;;;;;;2.00;1.40;;;;;;;;;;5077201;28;20736;-83
2023/07/31 00:26:49;;;;;;;3.17;1.48;;;;;;;;;;5077621;28;20384;-83
2023/07/31 00:29:15;;;;;;;1.92;1.33;;;;;;;;;;5076243;28;20449;-83
2023/07/31 00:31:41;;;;;;;2.58;1.60;;;;;;;;;;5075385;28;20404;-83
2023/07/31 00:34:07;;;;;;;1.83;1.40;;;;;;;;;;5076666;28;20800;-83
2023/07/31 00:36:33;;;;;;;1.63;1.50;;;;;;;;;;5075479;28;20392;-83
2023/07/31 00:38:59;;;;;;;2.70;1.58;;;;;;;;;;5077228;28;20399;-83
2023/07/31 00:41:24;;;;;;;1.70;1.47;;;;;;;;;;5076621;28;20808;-83
2023/07/31 00:43:50;;;;;;;1.80;1.17;;;;;;;;;;5076893;28;20395;-83
2023/07/31 00:46:17;;;;;;;1.98;1.40;;;;;;;;;;5076821;28;20476;-83
2023/07/31 00:48:43;;;;;;;1.95;1.45;;;;;;;;;;5077374;28;20388;-83
2023/07/31 00:51:09;;;;;;;1.50;1.40;;;;;;;;;;5076774;28;20484;-83
2023/07/31 00:53:36;;;;;;;1.83;1.50;;;;;;;;;;5076878;28;20482;-83
2023/07/31 00:56:02;;;;;;;2.60;1.50;;;;;;;;;;5076710;28;20382;-83
2023/07/31 00:58:28;;;;;;;2.47;1.50;;;;;;;;;;5076365;28;20849;-83
2023/07/31 01:00:54;;;;;;;2.83;1.48;;;;;;;;;;5074945;28;20392;-83
2023/07/31 01:03:20;;;;;;;2.00;1.40;;;;;;;;;;5076721;28;20388;-83
2023/07/31 01:05:46;;;;;;;1.88;1.35;;;;;;;;;;5075959;28;20376;-83
2023/07/31 01:08:16;;;;;;;2.03;1.50;;;;;;;;;;5076330;28;20865;-83
2023/07/31 01:10:47;;;;;;;2.20;1.50;;;;;;;;;;5074769;28;20860;-83
2023/07/31 01:13:13;;;;;;;2.47;1.50;;;;;;;;;;5076877;28;20395;-83
2023/07/31 01:15:39;;;;;;;2.28;1.40;;;;;;;;;;5076178;28;20388;-83
2023/07/31 01:18:05;;;;;;;2.25;1.55;;;;;;;;;;5075983;28;20852;-83
2023/07/31 01:20:32;;;;;;;2.17;1.55;;;;;;;;;;5075817;28;20396;-83
2023/07/31 01:23:13;;;;;;;1.63;1.52;;;;;;;;;;5076458;28;20414;-83
2023/07/31 01:25:42;;;;;;;2.40;1.50;;;;;;;;;;5075976;28;20771;-83
2023/07/31 01:28:14;;;;;;;2.22;1.50;;;;;;;;;;5076331;28;20845;-83
2023/07/31 01:30:45;;;;;;;2.70;1.50;;;;;;;;;;5075713;28;20430;-83
2023/07/31 01:33:11;;;;;;;2.20;1.77;;;;;;;;;;5070461;28;20416;-83
2023/07/31 01:35:37;;;;;;;2.33;1.70;;;;;;;;;;5055575;28;20381;-83
2023/07/31 01:38:05;;;;;;;2.70;1.60;;;;;;;;;;5055687;28;20401;-83
2023/07/31 01:40:31;;;;;;;1.60;1.45;;;;;;;;;;5059870;28;20429;-83
2023/07/31 01:42:57;;;;;;;2.75;1.50;;;;;;;;;;5075568;28;20819;-83
2023/07/31 01:45:23;;;;;;;3.03;1.67;;;;;;;;;;5075822;28;20380;-83
2023/07/31 01:47:49;;;;;;;2.67;1.50;;;;;;;;;;5074081;28;20718;-83
2023/07/31 01:50:15;;;;;;;2.53;1.40;;;;;;;;;;5075347;28;20378;-83
2023/07/31 01:52:41;;;;;;;3.42;1.30;;;;;;;;;;5075520;28;20392;-83
2023/07/31 01:55:07;;;;;;;2.90;1.30;;;;;;;;;;5075772;28;20399;-83
2023/07/31 01:57:33;;;;;;;1.88;1.35;;;;;;;;;;5074187;28;20384;-82
2023/07/31 01:59:59;;;;;;;2.47;1.40;;;;;;;;;;5075592;28;20388;-82
2023/07/31 02:02:25;;;;;;;3.25;1.58;;;;;;;;;;5075410;28;20561;-82
2023/07/31 02:04:51;;;;;;;2.10;1.40;;;;;;;;;;5075715;28;20709;-82
2023/07/31 02:07:17;;;;;;;2.40;1.37;;;;;;;;;;5075194;28;20401;-82
2023/07/31 02:09:43;;;;;;;1.60;1.50;;;;;;;;;;5074906;28;20423;-82
2023/07/31 02:12:09;;;;;;;1.40;1.27;;;;;;;;;;5073338;28;20395;-82
2023/07/31 02:14:35;;;;;;;2.90;1.50;;;;;;;;;;5075416;28;20384;-82
2023/07/31 02:17:01;;;;;;;2.60;1.15;;;;;;;;;;5075572;28;20433;-83
2023/07/31 02:19:27;;;;;;;1.57;1.23;;;;;;;;;;5075511;28;20804;-83
2023/07/31 02:21:53;;;;;;;2.80;1.58;;;;;;;;;;5075393;28;20749;-82
2023/07/31 02:24:20;;;;;;;1.75;1.40;;;;;;;;;;5054119;28;20394;-83
2023/07/31 02:26:46;;;;;;;3.50;1.35;;;;;;;;;;5054818;28;20452;-83
2023/07/31 02:29:12;;;;;;;2.03;1.27;;;;;;;;;;5054893;28;20381;-82
2023/07/31 02:31:38;;;;;;;1.60;1.40;;;;;;;;;;5054597;28;20460;-82
2023/07/31 02:34:04;;;;;;;3.70;1.67;;;;;;;;;;5054771;28;20431;-82
2023/07/31 02:36:30;;;;;;;2.83;1.70;;;;;;;;;;5054992;28;20459;-83
2023/07/31 02:38:56;;;;;;;1.70;1.50;;;;;;;;;;5055185;28;20377;-83
2023/07/31 02:41:22;;;;;;;2.00;1.30;;;;;;;;;;5054749;28;20421;-82
2023/07/31 02:43:48;;;;;;;2.13;1.30;;;;;;;;;;5054915;28;20538;-82
2023/07/31 02:46:14;;;;;;;3.25;1.50;;;;;;;;;;5053939;28;20382;-82
2023/07/31 02:48:40;;;;;;;1.65;1.30;;;;;;;;;;5054937;28;20393;-82
2023/07/31 02:51:06;;;;;;;2.20;1.48;;;;;;;;;;5054517;28;20421;-82
2023/07/31 02:53:32;;;;;;;1.83;1.58;;;;;;;;;;5054704;28;20843;-82
2023/07/31 02:55:58;;;;;;;2.33;1.50;;;;;;;;;;5054579;28;20390;-82
2023/07/31 02:58:24;;;;;;;2.20;1.58;;;;;;;;;;5055107;28;20449;-82
2023/07/31 03:00:50;;;;;;;2.67;1.35;;;;;;;;;;5054510;28;20381;-82
2023/07/31 03:03:16;;;;;;;3.22;1.50;;;;;;;;;;5054910;28;20424;-82
2023/07/31 03:05:42;;;;;;;3.58;1.60;;;;;;;;;;5054861;28;20377;-82
2023/07/31 03:08:08;;;;;;;2.63;1.50;;;;;;;;;;5054485;28;20727;-82
2023/07/31 03:10:34;;;;;;;1.63;1.40;;;;;;;;;;5054503;28;20412;-82
2023/07/31 03:13:00;;;;;;;2.83;1.30;;;;;;;;;;5054607;28;20369;-82
2023/07/31 03:15:26;;;;;;;3.58;1.50;;;;;;;;;;5054448;28;20378;-82
2023/07/31 03:17:52;;;;;;;2.55;1.42;;;;;;;;;;5054258;28;20456;-82
2023/07/31 03:20:18;;;;;;;2.38;1.50;;;;;;;;;;5053968;28;20873;-82
2023/07/31 03:22:44;;;;;;;3.88;1.30;;;;;;;;;;5053441;28;20411;-82
2023/07/31 03:25:10;;;;;;;2.17;1.50;;;;;;;;;;5056777;28;20909;-82
2023/07/31 03:27:36;;;;;;;3.35;1.70;;;;;;;;;;5058009;28;20374;-82
2023/07/31 03:30:03;;;;;;;2.63;1.65;;;;;;;;;;5057377;28;20439;-82
2023/07/31 03:32:29;;;;;;;2.03;1.70;;;;;;;;;;5057613;28;20389;-82
2023/07/31 03:34:55;;;;;;;2.58;1.75;;;;;;;;;;5057244;28;20385;-82
2023/07/31 03:37:21;;;;;;;2.40;1.60;;;;;;;;;;5057045;28;20749;-82
2023/07/31 03:39:47;;;;;;;2.33;1.70;;;;;;;;;;5057188;28;20431;-82
2023/07/31 03:42:13;;;;;;;2.33;1.80;;;;;;;;;;5057852;28;20421;-82
2023/07/31 03:44:39;;;;;;;1.60;1.48;;;;;;;;;;5057586;28;20377;-82
2023/07/31 03:47:05;;;;;;;2.17;1.60;;;;;;;;;;5058319;28;20456;-82
2023/07/31 03:49:31;;;;;;;2.70;1.70;;;;;;;;;;5057510;28;20440;-82
2023/07/31 03:51:57;;;;;;;3.45;1.65;;;;;;;;;;5057107;28;20396;-82
2023/07/31 03:54:23;;;;;;;1.77;1.27;;;;;;;;;;5057054;28;20465;-82
2023/07/31 03:56:49;;;;;;;2.60;1.73;;;;;;;;;;5057093;28;20377;-82
2023/07/31 03:59:15;;;;;;;2.00;1.67;;;;;;;;;;5056849;28;20439;-82
2023/07/31 04:01:41;;;;;;;2.53;1.70;;;;;;;;;;5055303;28;20429;-82
2023/07/31 04:04:07;;;;;;;2.00;1.50;;;;;;;;;;5057180;28;20385;-82
2023/07/31 04:06:33;;;;;;;2.53;1.67;;;;;;;;;;5057201;28;20930;-82
2023/07/31 04:08:59;;;;;;;2.88;1.50;;;;;;;;;;5057370;28;20389;-83
2023/07/31 04:11:25;;;;;;;1.98;1.40;;;;;;;;;;5057095;28;20424;-82
2023/07/31 04:13:51;;;;;;;2.13;1.58;;;;;;;;;;5057086;28;20386;-82
2023/07/31 04:16:17;;;;;;;1.98;1.77;;;;;;;;;;5055789;28;20420;-82
2023/07/31 04:18:43;;;;;;;2.92;1.42;;;;;;;;;;5057130;28;20404;-82
2023/07/31 04:21:09;;;;;;;2.50;1.40;;;;;;;;;;5056805;28;20421;-82
2023/07/31 04:23:36;;;;;;;2.97;1.48;;;;;;;;;;5057077;28;20435;-83
2023/07/31 04:26:02;;;;;;;2.50;1.58;;;;;;;;;;5057483;28;20397;-83
2023/07/31 04:28:28;;;;;;;2.30;1.70;;;;;;;;;;5056659;28;20415;-83
2023/07/31 04:30:53;;;;;;;2.35;1.52;;;;;;;;;;5056968;28;20877;-83
2023/07/31 04:33:20;;;;;;;2.00;1.33;;;;;;;;;;5057503;28;20393;-82
2023/07/31 04:35:52;;;;;;;1.73;1.30;;;;;;;;;;5057298;28;20389;-82
2023/07/31 04:38:18;;;;;;;1.63;1.30;;;;;;;;;;5057328;28;20378;-82
2023/07/31 04:40:44;;;;;;;3.03;1.60;;;;;;;;;;5056420;28;20826;-82
2023/07/31 04:43:10;;;;;;;1.90;1.50;;;;;;;;;;5057160;28;20464;-83
2023/07/31 04:45:36;;;;;;;4.23;1.80;;;;;;;;;;5057499;28;20424;-83
2023/07/31 04:48:02;;;;;;;2.40;1.60;;;;;;;;;;5056747;28;20393;-83
2023/07/31 04:50:30;;;;;;;2.65;1.60;;;;;;;;;;5056530;28;20385;-83
2023/07/31 04:52:56;;;;;;;2.00;1.30;;;;;;;;;;5056395;28;20481;-83
2023/07/31 04:55:22;;;;;;;1.40;1.30;;;;;;;;;;5057303;28;20842;-83
2023/07/31 04:57:47;;;;;;;2.40;1.45;;;;;;;;;;5056592;28;20382;-83
2023/07/31 05:00:14;;;;;;;1.70;1.50;;;;;;;;;;5056335;28;20781;-83
2023/07/31 05:02:40;;;;;;;2.30;1.67;;;;;;;;;;5055603;28;20415;-83
2023/07/31 05:05:06;;;;;;;2.10;1.63;;;;;;;;;;5057164;28;20419;-83
2023/07/31 05:07:32;;;;;;;2.03;1.42;;;;;;;;;;5056133;28;20417;-83
2023/07/31 05:09:58;;;;;;;2.70;1.65;;;;;;;;;;5056572;28;20447;-83
2023/07/31 05:12:23;;;;;;;2.17;1.50;;;;;;;;;;5057095;28;20382;-83
2023/07/31 05:14:49;;;;;;;2.77;1.77;;;;;;;;;;5056115;28;20850;-83
2023/07/31 05:17:15;;;;;;;2.47;1.60;;;;;;;;;;5056488;28;20408;-83
2023/07/31 05:19:42;;;;;;;1.75;1.60;;;;;;;;;;5056321;28;20843;-83
2023/07/31 05:22:08;;;;;;;1.70;1.38;;;;;;;;;;5056205;28;20416;-83
2023/07/31 05:24:34;;;;;;;2.30;1.60;;;;;;;;;;5056558;28;20401;-83
2023/07/31 05:27:00;;;;;;;2.77;1.50;;;;;;;;;;5056254;28;20858;-83
2023/07/31 05:29:26;;;;;;;2.75;1.60;;;;;;;;;;5056024;28;20720;-83
2023/07/31 05:31:52;;;;;;;2.03;1.40;;;;;;;;;;5055422;28;20397;-83
2023/07/31 05:34:17;;;;;;;1.70;1.40;;;;;;;;;;5056439;28;20393;-83
2023/07/31 05:36:43;;;;;;;3.00;1.40;;;;;;;;;;5055903;28;20472;-83
2023/07/31 05:39:09;;;;;;;3.10;1.70;;;;;;;;;;5055936;28;20392;-83
2023/07/31 05:41:36;;;;;;;2.23;1.30;;;;;;;;;;5056212;28;20416;-83
2023/07/31 05:44:02;;;;;;;3.60;1.70;;;;;;;;;;5056008;28;20385;-83
2023/07/31 05:46:28;;;;;;;3.00;1.67;;;;;;;;;;5055695;28;20713;-83
2023/07/31 05:48:54;;;;;;;3.22;1.63;;;;;;;;;;5055240;28;20385;-83
2023/07/31 05:51:20;;;;;;;2.70;1.60;;;;;;;;;;5055396;28;20385;-83
2023/07/31 05:53:46;;;;;;;2.80;1.63;;;;;;;;;;5055857;28;20424;-83
2023/07/31 05:56:12;;;;;;;2.15;1.50;;;;;;;;;;5055356;28;20382;-83
2023/07/31 05:58:38;;;;;;;2.05;1.52;;;;;;;;;;5055854;28;20393;-83
2023/07/31 06:01:04;;;;;;;2.10;1.60;;;;;;;;;;5055233;28;20858;-83
2023/07/31 06:03:30;;;;;;;5.38;1.77;;;;;;;;;;5055942;28;20393;-83
2023/07/31 06:05:56;;;;;;;1.85;1.60;;;;;;;;;;5055721;28;20386;-83
2023/07/31 06:08:22;;;;;;;3.47;1.90;;;;;;;;;;5056147;28;20443;-83
2023/07/31 06:10:48;;;;;;;2.25;1.48;;;;;;;;;;5056461;28;20386;-83
2023/07/31 06:13:14;;;;;;;1.73;1.60;;;;;;;;;;5056070;28;20924;-83
2023/07/31 06:15:40;;;;;;;3.80;1.70;;;;;;;;;;5055675;28;20458;-83
2023/07/31 06:18:07;;;;;;;2.90;1.50;;;;;;;;;;5054457;28;20400;-83
2023/07/31 06:20:34;;;;;;;3.65;2.00;;;;;;;;;;5056206;28;20738;-83
2023/07/31 06:23:00;;;;;;;3.35;1.90;;;;;;;;;;5055649;28;20425;-83
2023/07/31 06:25:26;;;;;;;2.58;1.80;;;;;;;;;;5055543;28;20488;-83
2023/07/31 06:27:52;;;;;;;2.50;1.80;;;;;;;;;;5055864;28;20739;-83
2023/07/31 06:30:18;;;;;;;3.03;1.90;;;;;;;;;;5055328;28;20389;-83
2023/07/31 06:32:44;;;;;;;3.58;2.00;;;;;;;;;;5055236;28;20381;-83
2023/07/31 06:35:10;;;;;;;5.00;1.90;;;;;;;;;;5054671;28;20924;-83
2023/07/31 06:37:36;;;;;;;4.88;2.05;;;;;;;;;;5055105;28;20730;-83
2023/07/31 06:40:02;;;;;;;3.70;2.03;;;;;;;;;;5055403;28;20386;-83
2023/07/31 06:42:29;;;;;;;2.65;2.15;;;;;;;;;;5055330;28;20445;-83
2023/07/31 06:44:55;;;;;;;3.10;1.90;;;;;;;;;;5055566;28;20385;-83
2023/07/31 06:47:21;;;;;;;3.55;2.08;;;;;;;;;;5055856;28;20417;-83
2023/07/31 06:49:46;;;;;;;4.30;1.92;;;;;;;;;;5055930;28;20750;-83
2023/07/31 06:52:12;;;;;;;2.70;2.00;;;;;;;;;;5055181;28;20460;-83
2023/07/31 06:54:38;;;;;;;3.33;1.95;;;;;;;;;;5054845;28;20831;-83
2023/07/31 06:57:05;;;;;;;3.30;1.92;;;;;;;;;;5055363;28;20389;-83
2023/07/31 06:59:31;;;;;;;4.15;2.00;;;;;;;;;;5057695;28;20381;-83
2023/07/31 07:01:57;;;;;;;2.83;2.15;;;;;;;;;;5057129;28;20470;-83
2023/07/31 07:04:22;;;;;;;3.55;2.05;;;;;;;;;;5059465;28;20935;-83
2023/07/31 07:06:48;;;;;;;2.73;1.90;;;;;;;;;;5058310;28;20381;-83
2023/07/31 07:09:14;;;;;;;2.90;1.90;;;;;;;;;;5058522;28;20463;-84
2023/07/31 07:11:40;;;;;;;3.45;1.65;;;;;;;;;;5058697;28;20842;-84
2023/07/31 07:14:06;;;;;;;2.95;1.95;;;;;;;;;;5059003;28;20389;-83
2023/07/31 07:16:32;;;;;;;2.38;1.83;;;;;;;;;;5058877;28;20381;-84
2023/07/31 07:18:58;;;;;;;3.50;1.70;;;;;;;;;;5059152;28;20394;-84
2023/07/31 07:21:24;;;;;;;3.83;1.80;;;;;;;;;;5059585;28;20533;-84
2023/07/31 07:23:50;;;;;;;2.55;1.70;;;;;;;;;;5058418;28;20735;-84
2023/07/31 07:26:16;;;;;;;3.65;1.77;;;;;;;;;;5059412;28;20396;-84
2023/07/31 07:28:42;;;;;;;2.55;1.70;;;;;;;;;;5059652;28;20390;-84
2023/07/31 07:31:08;;;;;;;2.67;1.63;;;;;;;;;;5057052;28;20484;-83
2023/07/31 07:33:34;;;;;;;3.35;1.55;;;;;;;;;;5059393;28;20412;-83
2023/07/31 07:36:01;;;;;;;4.73;1.50;;;;;;;;;;5059304;28;20398;-84
2023/07/31 07:38:27;;;;;;;3.50;1.77;;;;;;;;;;5059173;28;20908;-84
2023/07/31 07:40:53;;;;;;;2.60;1.63;;;;;;;;;;5059408;28;20385;-83
2023/07/31 07:43:19;;;;;;;5.05;2.00;;;;;;;;;;5059395;28;20419;-84
2023/07/31 07:45:45;;;;;;;3.40;1.65;;;;;;;;;;5060862;28;20445;-84
2023/07/31 07:48:11;;;;;;;3.83;1.70;;;;;;;;;;5061171;28;20816;-84
2023/07/31 07:50:39;;;;;;;4.32;1.80;;;;;;;;;;5060806;28;20389;-82
2023/07/31 07:53:05;;;;;;;3.57;1.80;;;;;;;;;;5060714;28;20386;-84
2023/07/31 07:55:31;;;;;;;3.30;1.90;;;;;;;;;;5059628;28;20378;-84
2023/07/31 07:57:57;;;;;;;2.63;1.65;;;;;;;;;;5060453;28;20386;-84
2023/07/31 08:00:23;;;;;;;3.50;1.70;;;;;;;;;;5060360;28;20447;-84
2023/07/31 08:02:49;;;;;;;3.70;1.67;;;;;;;;;;5060517;28;20452;-84
2023/07/31 08:05:17;;;;;;;3.83;1.57;;;;;;;;;;5060639;28;20457;-84
2023/07/31 08:07:43;;;;;;;2.60;1.60;;;;;;;;;;5061292;28;20389;-84
2023/07/31 08:10:09;;;;;;;2.30;1.67;;;;;;;;;;5060959;28;20433;-84
2023/07/31 08:12:35;;;;;;;4.45;1.85;;;;;;;;;;5061950;28;20397;-84
2023/07/31 08:15:01;;;;;;;3.90;1.77;;;;;;;;;;5060223;28;20394;-84
2023/07/31 08:17:27;;;;;;;3.92;1.58;;;;;;;;;;5061600;28;20411;-84
2023/07/31 08:19:53;;;;;;;3.55;1.60;;;;;;;;;;5062986;28;20397;-84
2023/07/31 08:22:19;;;;;;;3.10;1.70;;;;;;;;;;5060490;28;20421;-84
2023/07/31 08:24:45;;;;;;;3.05;1.73;;;;;;;;;;5063233;28;20394;-84
2023/07/31 08:27:11;;;;;;;2.73;1.70;;;;;;;;;;5060521;28;20398;-84
2023/07/31 08:29:37;;;;;;;2.30;1.52;;;;;;;;;;5063221;28;20408;-85
2023/07/31 08:32:03;;;;;;;3.05;1.40;;;;;;;;;;5063479;28;20866;-84
2023/07/31 08:34:29;;;;;;;3.67;1.58;;;;;;;;;;5062899;28;20392;-84
2023/07/31 08:36:55;;;;;;;4.20;1.60;;;;;;;;;;5061274;28;20395;-85
2023/07/31 08:39:21;;;;;;;2.25;1.50;;;;;;;;;;5062257;28;20382;-85
2023/07/31 08:41:48;;;;;;;3.45;1.52;;;;;;;;;;5063060;28;20428;-85
2023/07/31 08:44:14;;;;;;;3.45;1.60;;;;;;;;;;5063381;28;20392;-85
2023/07/31 08:46:41;;;;;;;2.72;1.65;;;;;;;;;;5062695;28;20374;-84
2023/07/31 08:49:08;;;;;;;4.63;1.70;;;;;;;;;;5063048;28;20386;-84
2023/07/31 08:51:37;;;;;;;3.97;1.80;;;;;;;;;;5062178;28;20381;-85
2023/07/31 08:54:06;;;;;;;2.95;1.60;;;;;;;;;;5062783;28;20390;-85
2023/07/31 08:56:35;;;;;;;2.63;1.60;;;;;;;;;;5063251;28;20384;-85
2023/07/31 08:59:04;;;;;;;3.17;1.48;;;;;;;;;;5061892;28;20378;-84
2023/07/31 09:01:31;;;;;;;3.70;1.70;;;;;;;;;;5062864;28;20440;-84
2023/07/31 09:03:58;;;;;;;3.63;1.55;;;;;;;;;;5063766;28;20389;-85
2023/07/31 09:06:25;;;;;;;3.20;1.60;;;;;;;;;;5063057;28;20412;-85
2023/07/31 09:08:52;;;;;;;3.03;1.60;;;;;;;;;;5062703;28;20390;-85
2023/07/31 09:11:19;;;;;;;3.83;1.60;;;;;;;;;;5063999;28;20424;-85
2023/07/31 09:13:46;;;;;;;1.95;1.40;;;;;;;;;;5063392;28;20397;-82
2023/07/31 09:16:12;;;;;;;3.05;1.65;;;;;;;;;;5063380;28;20468;-82
2023/07/31 09:18:54;;;;;;;1.75;1.40;;;;;;;;;;5063337;28;20743;-83
2023/07/31 09:21:20;;;;;;;2.50;1.30;;;;;;;;;;5060680;28;20543;-83
2023/07/31 09:23:54;;;;;;;1.88;1.15;;;;;;;;;;5062969;28;20389;-82
2023/07/31 09:26:33;;;;;;;3.67;1.80;;;;;;;;;;5064778;28;20463;-82
2023/07/31 09:29:00;;;;;;;3.25;1.80;;;;;;;;;;5064738;28;20374;-85
2023/07/31 09:31:39;;;;;;;2.70;1.40;;;;;;;;;;5063224;28;20394;-85
2023/07/31 09:34:05;;;;;;;4.60;1.67;;;;;;;;;;5064330;28;20385;-85
2023/07/31 09:36:31;;;;;;;3.35;1.45;;;;;;;;;;5063563;28;20400;-85
2023/07/31 09:39:03;;;;;;;3.35;1.45;;;;;;;;;;5064726;28;20396;-85
2023/07/31 09:41:33;;;;;;;2.03;1.58;;;;;;;;;;5065191;28;20440;-85
2023/07/31 09:43:59;;;;;;;3.30;1.58;;;;;;;;;;5066997;28;20392;-85
2023/07/31 09:46:27;;;;;;;2.88;1.48;;;;;;;;;;5048765;28;20441;-85
2023/07/31 09:48:53;;;;;;;3.13;1.58;;;;;;;;;;5045762;28;20462;-85
2023/07/31 09:51:30;;;;;;;2.72;1.50;;;;;;;;;;5046002;28;20392;-85
2023/07/31 09:53:56;;;;;;;3.22;1.40;;;;;;;;;;5064098;28;20393;-85
2023/07/31 09:56:23;;;;;;;3.00;1.50;;;;;;;;;;5063007;28;20438;-85
2023/07/31 09:58:50;;;;;;;2.37;1.33;;;;;;;;;;5064445;28;20385;-85
2023/07/31 10:01:16;;;;;;;2.97;1.50;;;;;;;;;;5064517;28;20415;-85
2023/07/31 10:03:44;;;;;;;3.33;1.60;;;;;;;;;;5063870;28;20855;-85
2023/07/31 10:06:11;;;;;;;2.97;1.58;;;;;;;;;;5064176;28;20473;-85
2023/07/31 10:08:37;;;;;;;3.20;2.15;;;;;;;;;;5061683;28;20421;-85
2023/07/31 10:11:04;;;;;;;2.80;1.45;;;;;;;;;;5063661;28;20837;-85
2023/07/31 10:13:30;;;;;;;3.58;1.40;;;;;;;;;;5062545;28;20393;-86
2023/07/31 10:16:03;;;;;;;2.75;1.30;;;;;;;;;;5062101;28;20437;-86
2023/07/31 10:18:30;;;;;;;3.90;1.57;;;;;;;;;;5060339;28;20863;-86
2023/07/31 10:20:56;;;;;;;2.63;1.35;;;;;;;;;;5062851;28;20405;-86
2023/07/31 10:23:24;;;;;;;3.10;1.75;;;;;;;;;;5062499;28;20410;-85
2023/07/31 10:25:50;;;;;;;3.37;1.40;;;;;;;;;;5062589;28;20431;-85
2023/07/31 10:28:16;;;;;;;2.75;1.40;;;;;;;;;;5061642;28;20385;-86
2023/07/31 10:30:42;;;;;;;2.75;1.50;;;;;;;;;;5062444;28;20386;-86
2023/07/31 10:33:09;;;;;;;2.50;1.40;;;;;;;;;;5062557;28;20416;-86
2023/07/31 10:35:35;;;;;;;2.13;1.40;;;;;;;;;;5062399;28;20416;-86
2023/07/31 10:38:13;;;;;;;2.20;1.48;;;;;;;;;;5061898;28;20396;-85
2023/07/31 10:40:39;;;;;;;3.30;1.80;;;;;;;;;;5063274;28;20457;-85
2023/07/31 10:43:08;;;;;;;2.47;1.30;;;;;;;;;;5062111;28;20442;-85
2023/07/31 10:45:42;;;;;;;2.47;1.48;;;;;;;;;;5062337;28;20389;-85
2023/07/31 10:48:15;;;;;;;2.78;1.30;;;;;;;;;;5060334;28;20393;-85
2023/07/31 10:50:52;;;;;;;1.90;1.30;;;;;;;;;;5061572;28;20389;-85
2023/07/31 10:53:31;;;;;;;2.83;1.35;;;;;;;;;;5061728;28;20421;-85
2023/07/31 10:56:06;;;;;;;2.85;1.60;;;;;;;;;;5061004;28;20385;-83
2023/07/31 10:58:33;;;;;;;3.53;1.52;;;;;;;;;;5060899;28;20446;-85
2023/07/31 11:01:00;;;;;;;2.80;1.55;;;;;;;;;;5062889;28;20389;-85
2023/07/31 11:03:27;;;;;;;2.47;1.60;;;;;;;;;;5063234;28;20407;-85
2023/07/31 11:05:59;;;;;;;2.45;1.50;;;;;;;;;;5063954;28;20377;-85
2023/07/31 11:08:25;;;;;;;3.05;1.50;;;;;;;;;;5062512;28;20381;-85
2023/07/31 11:11:04;;;;;;;5.38;1.63;;;;;;;;;;5063122;28;20392;-85
2023/07/31 11:13:43;;;;;;;3.50;1.60;;;;;;;;;;5063675;28;20405;-85
2023/07/31 11:16:09;;;;;;;2.75;1.52;;;;;;;;;;5044505;28;20456;-85
2023/07/31 11:18:36;;;;;;;2.70;1.50;;;;;;;;;;5044771;28;20433;-85
2023/07/31 11:21:02;;;;;;;2.45;1.50;;;;;;;;;;5044030;28;20888;-85
2023/07/31 11:23:28;;;;;;;3.75;1.40;;;;;;;;;;5057616;28;20474;-85
2023/07/31 11:25:59;;;;;;;2.90;1.60;;;;;;;;;;5041752;28;20437;-86
2023/07/31 11:28:25;;;;;;;2.78;1.52;;;;;;;;;;5041767;28;20464;-85
2023/07/31 11:30:51;;;;;;;1.70;1.30;;;;;;;;;;5060024;28;20385;-83
2023/07/31 11:33:17;;;;;;;2.53;1.50;;;;;;;;;;5060469;28;20420;-83
2023/07/31 11:35:44;;;;;;;3.10;1.60;;;;;;;;;;5060976;28;20386;-83
2023/07/31 11:38:11;;;;;;;4.10;1.67;;;;;;;;;;5060408;28;20404;-83
2023/07/31 11:40:44;;;;;;;1.73;1.42;;;;;;;;;;5060871;28;20465;-83
2023/07/31 11:43:16;;;;;;;1.73;1.33;;;;;;;;;;5061155;28;20397;-83
2023/07/31 11:45:45;;;;;;;2.70;1.58;;;;;;;;;;5062838;28;20408;-83
2023/07/31 11:48:11;;;;;;;2.38;1.42;;;;;;;;;;5062790;28;20398;-84
2023/07/31 11:50:37;;;;;;;2.00;1.30;;;;;;;;;;5062453;28;20400;-84
2023/07/31 11:53:07;;;;;;;2.60;1.40;;;;;;;;;;5059805;28;20417;-84
2023/07/31 11:55:33;;;;;;;3.13;1.40;;;;;;;;;;5060997;28;20395;-84
2023/07/31 11:58:00;;;;;;;4.20;1.42;;;;;;;;;;5062337;28;20392;-84
2023/07/31 12:00:26;;;;;;;3.00;1.73;;;;;;;;;;5062267;28;20373;-84
2023/07/31 12:02:52;;;;;;;3.40;1.40;;;;;;;;;;5062795;28;20444;-84
2023/07/31 12:05:18;;;;;;;2.38;1.40;;;;;;;;;;5062193;28;20381;-84
2023/07/31 12:07:49;;;;;;;2.83;1.35;;;;;;;;;;5064383;28;20457;-84
2023/07/31 12:10:25;;;;;;;2.53;1.30;;;;;;;;;;5065280;28;20390;-84
2023/07/31 12:13:04;;;;;;;3.15;1.50;;;;;;;;;;5064695;28;20413;-85
2023/07/31 12:15:33;;;;;;;3.47;1.67;;;;;;;;;;5066193;28;20456;-86
2023/07/31 12:17:59;;;;;;;4.47;1.52;;;;;;;;;;5065762;28;20396;-84
2023/07/31 12:20:25;;;;;;;2.78;1.38;;;;;;;;;;5064703;28;20413;-84
2023/07/31 12:22:51;;;;;;;5.33;1.70;;;;;;;;;;5063127;28;20859;-84
2023/07/31 12:25:17;;;;;;;1.80;1.40;;;;;;;;;;5064556;28;20455;-84
2023/07/31 12:27:46;;;;;;;2.30;1.42;;;;;;;;;;5064075;28;20889;-84
2023/07/31 12:30:32;;;;;;;3.60;1.77;;;;;;;;;;5063427;28;20447;-84
2023/07/31 12:33:03;;;;;;;2.85;1.40;;;;;;;;;;5063588;28;20421;-84
2023/07/31 12:35:35;;;;;;;1.70;1.30;;;;;;;;;;5063290;28;20404;-84
2023/07/31 12:38:04;;;;;;;1.83;1.50;;;;;;;;;;5063614;28;20472;-84
2023/07/31 12:40:30;;;;;;;2.90;1.53;;;;;;;;;;5065250;28;20476;-84
2023/07/31 12:42:56;;;;;;;2.07;1.57;;;;;;;;;;5063535;28;20886;-84
2023/07/31 12:45:23;;;;;;;2.45;1.50;;;;;;;;;;5063315;28;20464;-83
2023/07/31 12:47:50;;;;;;;1.60;1.20;;;;;;;;;;5063041;28;20460;-84
2023/07/31 12:50:17;;;;;;;1.88;1.50;;;;;;;;;;5062812;28;20381;-84
2023/07/31 12:52:43;;;;;;;2.70;1.30;;;;;;;;;;5063419;28;20412;-84
2023/07/31 12:55:10;;;;;;;1.90;1.30;;;;;;;;;;5064824;28;20447;-84
2023/07/31 12:57:36;;;;;;;2.00;1.50;;;;;;;;;;5062121;28;20397;-84
2023/07/31 13:00:03;;;;;;;3.63;1.90;;;;;;;;;;5062320;28;20389;-84
2023/07/31 13:02:29;;;;;;;1.83;1.45;;;;;;;;;;5061723;28;20412;-84
2023/07/31 13:04:56;;;;;;;2.85;1.65;;;;;;;;;;5064000;28;20381;-84
2023/07/31 13:07:22;;;;;;;3.17;1.47;;;;;;;;;;5064715;28;20461;-84
2023/07/31 13:09:48;;;;;;;3.60;1.70;;;;;;;;;;5064472;28;20393;-84
2023/07/31 13:12:14;;;;;;;3.00;1.80;;;;;;;;;;5064328;28;20409;-84
2023/07/31 13:14:40;;;;;;;2.20;1.85;;;;;;;;;;5064135;28;20386;-84
2023/07/31 13:17:06;;;;;;;3.45;1.80;;;;;;;;;;5063208;28;20385;-83
2023/07/31 13:19:32;;;;;;;2.55;1.73;;;;;;;;;;5063024;28;20416;-84
2023/07/31 13:21:58;;;;;;;4.65;1.98;;;;;;;;;;5062798;28;20386;-84
2023/07/31 13:24:24;;;;;;;3.83;1.85;;;;;;;;;;5063547;28;20416;-84
2023/07/31 13:26:51;;;;;;;3.05;1.90;;;;;;;;;;5063248;28;20397;-83
2023/07/31 13:29:16;;;;;;;2.83;1.90;;;;;;;;;;5063764;28;20399;-84
2023/07/31 13:31:42;;;;;;;2.10;1.73;;;;;;;;;;5063479;28;20449;-84
2023/07/31 13:34:08;;;;;;;3.33;1.80;;;;;;;;;;5063218;28;20397;-83
2023/07/31 13:36:36;;;;;;;3.13;2.20;;;;;;;;;;5063689;28;20377;-84
2023/07/31 13:39:03;;;;;;;3.00;1.95;;;;;;;;;;5062627;28;20408;-83
2023/07/31 13:41:29;;;;;;;2.85;1.90;;;;;;;;;;5063532;28;20386;-84
2023/07/31 13:43:55;;;;;;;3.88;1.90;;;;;;;;;;5063710;28;20392;-83
2023/07/31 13:46:21;;;;;;;3.10;1.98;;;;;;;;;;5062259;28;20386;-83
2023/07/31 13:48:47;;;;;;;5.18;2.03;;;;;;;;;;5063471;28;20389;-83
2023/07/31 13:51:13;;;;;;;3.45;1.83;;;;;;;;;;5062476;28;20393;-84
2023/07/31 13:53:39;;;;;;;2.88;1.95;;;;;;;;;;5061978;28;20421;-84
2023/07/31 13:56:05;;;;;;;5.30;2.17;;;;;;;;;;5062010;28;20389;-83
2023/07/31 13:58:31;;;;;;;2.85;2.05;;;;;;;;;;5061827;28;20855;-84
2023/07/31 14:00:57;;;;;;;3.22;2.10;;;;;;;;;;5061475;28;20415;-83
2023/07/31 14:03:23;;;;;;;3.30;2.47;;;;;;;;;;5061692;28;20443;-83
2023/07/31 14:05:48;;;;;;;2.67;2.03;;;;;;;;;;5061941;28;20390;-84
2023/07/31 14:08:15;;;;;;;3.07;2.00;;;;;;;;;;5061641;28;20382;-84
2023/07/31 14:10:41;;;;;;;3.50;2.00;;;;;;;;;;5062337;28;20401;-84
2023/07/31 14:13:07;;;;;;;3.20;2.17;;;;;;;;;;5061132;28;20496;-84
2023/07/31 14:15:35;;;;;;;2.75;1.98;;;;;;;;;;5061966;28;20791;-84
2023/07/31 14:18:01;;;;;;;4.05;2.10;;;;;;;;;;5061345;28;20867;-83
2023/07/31 14:20:27;;;;;;;2.92;2.03;;;;;;;;;;5061342;28;20416;-84
2023/07/31 14:22:53;;;;;;;2.88;2.40;;;;;;;;;;5061558;28;20378;-83
2023/07/31 14:25:19;;;;;;;2.47;2.08;;;;;;;;;;5060949;28;20385;-83
2023/07/31 14:27:45;;;;;;;4.05;2.30;;;;;;;;;;5060635;28;20385;-84
2023/07/31 14:30:11;;;;;;;2.80;2.20;;;;;;;;;;5061036;28;20393;-83
2023/07/31 14:32:37;;;;;;;2.85;2.20;;;;;;;;;;5060567;28;20416;-83
2023/07/31 14:35:04;;;;;;;2.70;2.30;;;;;;;;;;5060250;28;20378;-83
2023/07/31 14:37:40;;;;;;;2.53;2.20;;;;;;;;;;5060721;28;20415;-83
2023/07/31 14:40:12;;;;;;;4.55;2.38;;;;;;;;;;5060229;28;20423;-83